Caledonia, North Dakota
Current Conditions -  °F | °C
As of 11:54 AM on Monday 24 Nov 2014 (Local Time) from KCKN Reporting Station
Broken Clouds Broken Clouds  
Wind Chill: -10°   Ceiling: 1400
Heat Index: 10°   Visibility: 7mi
Dew Point:   Wind: 25mph
Humidity: 85%   Direction: 350°N
Pressure: 29.77"   Gusts: 31mph
Location:  47.46°N, 96.88°W
Report Text: KCKN 241754Z AUTO 35022G27KT 7SM BKN014 M12/M14 A2977 RMK AO2
Loading
Personal Weather Stations






























Interactive Weather Map New forecast layout! Learn more

10-Day Weather Forecast

Advertisements
Track Severe Weather on mobile